createdAt,value
2019-03-28T00:00:54.590Z,101868.32
2019-03-28T00:02:35.483Z,101859.85
2019-03-28T00:04:12.727Z,101854.13
2019-03-28T00:05:48.480Z,101859.11
2019-03-28T00:07:24.429Z,101857.83
2019-03-28T00:09:00.038Z,101851.28
2019-03-28T00:10:35.671Z,101850.17
2019-03-28T00:12:12.231Z,101848.30
2019-03-28T00:13:47.992Z,101853.63
2019-03-28T00:15:24.023Z,101851.72
2019-03-28T00:16:59.856Z,101849.73
2019-03-28T00:18:35.501Z,101845.48
2019-03-28T00:20:11.886Z,101849.63
2019-03-28T00:21:47.806Z,101842.53
2019-03-28T00:23:32.161Z,101850.27
2019-03-28T00:25:10.618Z,101845.93
2019-03-28T00:26:46.605Z,101846.53
2019-03-28T00:28:22.520Z,101846.27
2019-03-28T00:29:57.474Z,101844.99
2019-03-28T00:31:32.436Z,101846.19
2019-03-28T00:33:07.338Z,101846.86
2019-03-28T00:34:42.578Z,101847.03
2019-03-28T00:36:17.847Z,101854.46
2019-03-28T00:37:54.153Z,101851.48
2019-03-28T00:39:30.035Z,101845.95
2019-03-28T00:41:05.758Z,101847.89
2019-03-28T00:42:41.406Z,101852.75
2019-03-28T00:44:17.343Z,101844.16
2019-03-28T00:45:53.048Z,101848.50
2019-03-28T00:47:28.938Z,101846.08
2019-03-28T00:49:04.973Z,101846.98
2019-03-28T00:50:40.608Z,101850.08
2019-03-28T00:52:16.363Z,101851.65
2019-03-28T00:53:51.924Z,101848.50
2019-03-28T00:55:27.819Z,101853.63
2019-03-28T00:57:03.771Z,101851.94
2019-03-28T00:58:39.721Z,101854.75
2019-03-28T01:00:16.466Z,101862.06
2019-03-28T01:01:52.196Z,101855.72
2019-03-28T01:03:28.123Z,101854.95
2019-03-28T01:05:03.717Z,101858.03
2019-03-28T01:06:39.421Z,101855.81
2019-03-28T01:08:15.011Z,101853.40
2019-03-28T01:09:51.068Z,101853.43
2019-03-28T01:11:26.673Z,101852.11
2019-03-28T01:13:02.310Z,101851.28
2019-03-28T01:14:38.613Z,101848.55
2019-03-28T01:16:14.393Z,101849.77
2019-03-28T01:17:50.821Z,101847.94
2019-03-28T01:19:26.546Z,101851.23
2019-03-28T01:21:02.441Z,101854.25
2019-03-28T01:22:38.562Z,101845.15
2019-03-28T01:24:14.183Z,101848.77
2019-03-28T01:25:49.804Z,101844.23
2019-03-28T01:27:25.490Z,101849.33
2019-03-28T01:29:01.413Z,101845.55
2019-03-28T01:30:37.281Z,101849.69
2019-03-28T01:32:13.220Z,101850.44
2019-03-28T01:33:48.857Z,101843.77
2019-03-28T01:35:24.779Z,101845.62
2019-03-28T01:37:00.675Z,101846.61
2019-03-28T01:38:36.299Z,101835.71
2019-03-28T01:40:11.907Z,101841.18
2019-03-28T01:41:47.789Z,101843.34
2019-03-28T01:43:23.721Z,101844.78
2019-03-28T01:44:59.563Z,101847.95
2019-03-28T01:46:35.588Z,101849.08
2019-03-28T01:48:11.226Z,101845.20
2019-03-28T01:49:46.817Z,101847.45
2019-03-28T01:51:22.486Z,101848.30
2019-03-28T01:52:58.082Z,101843.12
2019-03-28T01:54:33.774Z,101843.37
2019-03-28T01:56:09.393Z,101849.58
2019-03-28T01:57:44.999Z,101851.02
2019-03-28T01:59:21.218Z,101846.59
2019-03-28T02:00:56.986Z,101845.67
2019-03-28T02:02:33.205Z,101842.48
2019-03-28T02:04:08.796Z,101838.64
2019-03-28T02:05:44.416Z,101847.03
2019-03-28T02:07:20.014Z,101841.91
2019-03-28T02:08:55.641Z,101844.57
2019-03-28T02:10:31.500Z,101840.00
2019-03-28T02:12:07.160Z,101840.28
2019-03-28T02:13:42.756Z,101837.75
2019-03-28T02:15:18.684Z,101838.01
2019-03-28T02:16:54.276Z,101834.03
2019-03-28T02:18:29.898Z,101837.70
2019-03-28T02:20:05.766Z,101839.23
2019-03-28T02:21:41.662Z,101840.12
2019-03-28T02:23:17.249Z,101835.94
2019-03-28T02:24:52.979Z,101838.70
2019-03-28T02:26:29.163Z,101835.44
2019-03-28T02:28:05.133Z,101838.84
2019-03-28T02:29:40.730Z,101833.82
2019-03-28T02:31:16.914Z,101829.36
2019-03-28T02:32:52.712Z,101833.92
2019-03-28T02:34:28.437Z,101832.45
2019-03-28T02:36:04.023Z,101829.11
2019-03-28T02:37:39.703Z,101827.80
2019-03-28T02:39:16.027Z,101830.20
2019-03-28T02:40:51.902Z,101833.14
2019-03-28T02:42:28.152Z,101832.31
2019-03-28T02:44:03.843Z,101831.59
2019-03-28T02:45:39.453Z,101830.95
2019-03-28T02:47:15.078Z,101826.89
2019-03-28T02:48:51.163Z,101837.84
2019-03-28T02:50:26.760Z,101836.63
2019-03-28T02:52:02.426Z,101842.95
2019-03-28T02:53:38.037Z,101840.70
2019-03-28T02:55:13.736Z,101837.17
2019-03-28T02:56:49.352Z,101839.91
2019-03-28T02:58:24.978Z,101844.09
2019-03-28T03:00:00.569Z,101837.88
2019-03-28T03:01:36.165Z,101844.26
2019-03-28T03:03:12.176Z,101846.84
2019-03-28T03:04:47.776Z,101843.05
2019-03-28T03:06:23.520Z,101844.38
2019-03-28T03:07:59.152Z,101842.75
2019-03-28T03:09:34.773Z,101839.07
2019-03-28T03:11:10.472Z,101840.63
2019-03-28T03:12:46.612Z,101844.03
2019-03-28T03:14:22.199Z,101839.38
2019-03-28T03:15:57.840Z,101844.19
2019-03-28T03:17:33.442Z,101842.52
2019-03-28T03:19:09.037Z,101847.34
2019-03-28T03:20:44.935Z,101849.54
2019-03-28T03:22:20.782Z,101847.89
2019-03-28T03:23:56.380Z,101843.98
2019-03-28T03:25:32.202Z,101845.70
2019-03-28T03:27:08.340Z,101849.80
2019-03-28T03:28:43.936Z,101848.61
2019-03-28T03:30:19.870Z,101850.05
2019-03-28T03:31:55.977Z,101853.83
2019-03-28T03:33:31.595Z,101851.18
2019-03-28T03:35:08.081Z,101846.88
2019-03-28T03:36:43.945Z,101845.67
2019-03-28T03:38:19.524Z,101842.64
2019-03-28T03:39:55.154Z,101842.29
2019-03-28T03:41:31.025Z,101843.60
2019-03-28T03:43:06.859Z,101844.21
2019-03-28T03:44:42.714Z,101844.69
2019-03-28T03:46:18.405Z,101843.22
2019-03-28T03:47:53.999Z,101841.64
2019-03-28T03:49:30.679Z,101841.69
2019-03-28T03:51:06.581Z,101839.59
2019-03-28T03:52:42.525Z,101841.39
2019-03-28T03:54:18.381Z,101839.97
2019-03-28T03:55:54.066Z,101835.30
2019-03-28T03:57:29.663Z,101839.02
2019-03-28T03:59:05.418Z,101837.81
2019-03-28T04:00:41.168Z,101841.14
2019-03-28T04:02:16.769Z,101838.45
2019-03-28T04:03:52.396Z,101843.91
2019-03-28T04:05:27.992Z,101838.68
2019-03-28T04:07:03.587Z,101836.97
2019-03-28T04:08:39.436Z,101843.13
2019-03-28T04:10:15.652Z,101832.80
2019-03-28T04:11:51.741Z,101841.37
2019-03-28T04:13:27.342Z,101840.55
2019-03-28T04:15:03.205Z,101841.69
2019-03-28T04:16:39.361Z,101844.45
2019-03-28T04:18:15.214Z,101844.16
2019-03-28T04:19:51.344Z,101839.34
2019-03-28T04:21:26.937Z,101845.13
2019-03-28T04:23:03.849Z,101846.40
2019-03-28T04:24:39.877Z,101852.06
2019-03-28T04:26:15.478Z,101844.82
2019-03-28T04:27:51.347Z,101856.91
2019-03-28T04:29:26.984Z,101854.95
2019-03-28T04:31:02.696Z,101852.62
2019-03-28T04:32:38.515Z,101850.69
2019-03-28T04:34:14.144Z,101850.64
2019-03-28T04:35:49.748Z,101849.78
2019-03-28T04:37:25.619Z,101853.55
2019-03-28T04:39:01.213Z,101858.38
2019-03-28T04:40:36.889Z,101853.20
2019-03-28T04:42:12.498Z,101853.58
2019-03-28T04:43:48.108Z,101861.16
2019-03-28T04:45:23.697Z,101864.51
2019-03-28T04:46:59.534Z,101864.28
2019-03-28T04:48:35.140Z,101864.63
2019-03-28T04:50:11.739Z,101858.04
2019-03-28T04:51:47.329Z,101866.63
2019-03-28T04:53:22.931Z,101855.84
2019-03-28T04:54:58.530Z,101860.45
2019-03-28T04:56:34.154Z,101860.72
2019-03-28T04:58:09.862Z,101870.36
2019-03-28T04:59:45.991Z,101866.73
2019-03-28T05:01:21.573Z,101868.08
2019-03-28T05:02:57.673Z,101869.80
2019-03-28T05:04:33.484Z,101869.58
2019-03-28T05:06:09.134Z,101868.43
2019-03-28T05:07:45.235Z,101865.61
2019-03-28T05:09:21.097Z,101855.39
2019-03-28T05:10:57.189Z,101863.78
2019-03-28T05:12:32.894Z,101867.84
2019-03-28T05:14:08.511Z,101870.66
2019-03-28T05:15:44.366Z,101865.36
2019-03-28T05:17:19.977Z,101866.47
2019-03-28T05:18:55.795Z,101861.80
2019-03-28T05:20:31.708Z,101868.28
2019-03-28T05:22:07.584Z,101873.41
2019-03-28T05:23:43.444Z,101871.61
2019-03-28T05:25:19.328Z,101875.06
2019-03-28T05:26:54.945Z,101865.77
2019-03-28T05:28:30.717Z,101875.58
2019-03-28T05:30:08.178Z,101868.88
2019-03-28T05:31:44.175Z,101872.94
2019-03-28T05:33:19.790Z,101873.69
2019-03-28T05:34:55.709Z,101873.65
2019-03-28T05:36:31.301Z,101877.36
2019-03-28T05:38:06.924Z,101878.08
2019-03-28T05:39:42.888Z,101879.02
2019-03-28T05:41:18.879Z,101873.68
2019-03-28T05:42:54.707Z,101876.44
2019-03-28T05:44:30.321Z,101881.94
2019-03-28T05:46:05.910Z,101878.13
2019-03-28T05:47:41.570Z,101873.59
2019-03-28T05:49:16.533Z,101873.84
2019-03-28T05:50:51.554Z,101872.70
2019-03-28T05:52:26.472Z,101872.22
2019-03-28T05:54:01.883Z,101878.86
2019-03-28T05:55:37.382Z,101875.80
2019-03-28T05:57:12.322Z,101879.93
2019-03-28T05:58:47.305Z,101877.51
2019-03-28T06:00:22.332Z,101876.52
2019-03-28T06:01:57.290Z,101882.33
2019-03-28T06:03:33.480Z,101879.70
2019-03-28T06:05:08.585Z,101883.75
2019-03-28T06:06:44.235Z,101882.14
2019-03-28T06:08:19.341Z,101884.91
2019-03-28T06:09:54.519Z,101887.92
2019-03-28T06:11:29.474Z,101884.28
2019-03-28T06:13:04.519Z,101889.60
2019-03-28T06:14:39.517Z,101896.74
2019-03-28T06:16:14.550Z,101891.28
2019-03-28T06:17:49.596Z,101899.45
2019-03-28T06:19:24.631Z,101894.92
2019-03-28T06:20:59.685Z,101900.89
2019-03-28T06:22:34.772Z,101896.03
2019-03-28T06:24:09.701Z,101897.72
2019-03-28T06:25:44.885Z,101893.05
2019-03-28T06:27:19.913Z,101893.84
2019-03-28T06:28:54.912Z,101896.41
2019-03-28T06:30:29.955Z,101894.87
2019-03-28T06:32:05.209Z,101901.34
2019-03-28T06:33:40.218Z,101894.97
2019-03-28T06:35:15.625Z,101900.27
2019-03-28T06:36:50.614Z,101898.14
2019-03-28T06:38:25.874Z,101902.79
2019-03-28T06:40:00.793Z,101903.83
2019-03-28T06:41:35.731Z,101901.86
2019-03-28T06:43:11.245Z,101895.49
2019-03-28T06:44:46.215Z,101905.04
2019-03-28T06:46:21.213Z,101898.22
2019-03-28T06:47:56.154Z,101897.03
2019-03-28T06:49:31.471Z,101908.22
2019-03-28T06:51:06.395Z,101895.50
2019-03-28T06:52:41.426Z,101900.38
2019-03-28T06:54:16.370Z,101909.50
2019-03-28T06:55:51.468Z,101909.53
2019-03-28T06:57:26.619Z,101912.45
2019-03-28T06:59:01.643Z,101908.05
2019-03-28T07:00:36.694Z,101910.47
2019-03-28T07:02:11.963Z,101903.38
2019-03-28T07:03:47.521Z,101910.63
2019-03-28T07:05:22.570Z,101902.09
2019-03-28T07:06:57.581Z,101902.44
2019-03-28T07:08:32.629Z,101911.19
2019-03-28T07:10:07.958Z,101909.58
2019-03-28T07:11:43.194Z,101905.89
2019-03-28T07:13:18.394Z,101906.78
2019-03-28T07:14:54.308Z,101914.30
2019-03-28T07:16:29.695Z,101917.59
2019-03-28T07:18:04.653Z,101907.47
2019-03-28T07:19:40.147Z,101906.20
2019-03-28T07:21:15.134Z,101914.81
2019-03-28T07:22:50.140Z,101918.97
2019-03-28T07:24:25.301Z,101911.73
2019-03-28T07:26:00.492Z,101919.93
2019-03-28T07:27:35.578Z,101918.80
2019-03-28T07:29:10.739Z,101916.64
2019-03-28T07:30:45.699Z,101915.36
2019-03-28T07:32:20.997Z,101924.37
2019-03-28T07:33:56.541Z,101925.39
2019-03-28T07:35:31.886Z,101920.59
2019-03-28T07:37:07.266Z,101924.03
2019-03-28T07:38:42.438Z,101924.89
2019-03-28T07:40:18.270Z,101921.98
2019-03-28T07:41:53.257Z,101920.80
2019-03-28T07:43:28.442Z,101920.12
2019-03-28T07:45:03.386Z,101926.91
2019-03-28T07:46:38.418Z,101925.82
2019-03-28T07:48:13.974Z,101927.16
2019-03-28T07:49:48.976Z,101925.43
2019-03-28T07:51:23.922Z,101928.80
2019-03-28T07:52:59.347Z,101936.73
2019-03-28T07:54:34.606Z,101932.11
2019-03-28T07:56:09.661Z,101932.08
2019-03-28T07:57:45.021Z,101936.38
2019-03-28T07:59:19.943Z,101936.14
2019-03-28T08:00:54.911Z,101941.81
2019-03-28T08:02:38.442Z,101938.92
2019-03-28T08:04:13.454Z,101941.86
2019-03-28T08:05:48.818Z,101944.88
2019-03-28T08:07:24.192Z,101945.41
2019-03-28T08:08:59.415Z,101944.69
2019-03-28T08:10:34.569Z,101943.56
2019-03-28T08:12:21.755Z,101943.55
2019-03-28T08:13:46.145Z,101943.58
2019-03-28T08:15:21.482Z,101945.00
2019-03-28T08:16:56.676Z,101946.39
2019-03-28T08:18:31.613Z,101948.72
2019-03-28T08:20:07.604Z,101942.85
2019-03-28T08:21:42.524Z,101944.46
2019-03-28T08:23:17.457Z,101944.97
2019-03-28T08:24:52.984Z,101946.05
2019-03-28T08:26:30.203Z,101950.33
2019-03-28T08:28:05.315Z,101953.69
2019-03-28T08:29:40.505Z,101949.67
2019-03-28T08:31:15.707Z,101949.32
2019-03-28T08:32:50.993Z,101949.89
2019-03-28T08:34:26.331Z,101955.33
2019-03-28T08:36:02.402Z,101952.02
2019-03-28T08:37:37.828Z,101947.15
2019-03-28T08:39:13.197Z,101947.18
2019-03-28T08:40:48.576Z,101961.53
2019-03-28T08:42:23.665Z,101955.58
2019-03-28T08:43:59.071Z,101957.46
2019-03-28T08:45:36.875Z,101964.80
2019-03-28T08:47:11.860Z,101961.69
2019-03-28T08:48:47.968Z,101960.42
2019-03-28T08:50:23.568Z,101964.91
2019-03-28T08:51:59.271Z,101964.93
2019-03-28T08:53:34.892Z,101968.89
2019-03-28T08:55:10.793Z,101965.44
2019-03-28T08:56:46.906Z,101966.87
2019-03-28T08:58:22.528Z,101964.78
2019-03-28T08:59:58.168Z,101966.42
2019-03-28T09:01:34.074Z,101971.70
2019-03-28T09:03:09.704Z,101971.39
2019-03-28T09:04:45.594Z,101974.11
2019-03-28T09:06:21.217Z,101969.77
2019-03-28T09:07:56.457Z,101974.88
2019-03-28T09:09:32.305Z,101970.51
2019-03-28T09:11:07.363Z,101973.18
2019-03-28T09:12:42.814Z,101974.88
2019-03-28T09:14:18.288Z,101975.66
2019-03-28T09:15:53.397Z,101979.47
2019-03-28T09:17:28.577Z,101976.70
2019-03-28T09:19:03.473Z,101971.82
2019-03-28T09:20:38.441Z,101981.09
2019-03-28T09:22:13.647Z,101974.16
2019-03-28T09:23:48.537Z,101974.07
2019-03-28T09:25:23.614Z,101977.91
2019-03-28T09:26:58.892Z,101980.14
2019-03-28T09:28:33.846Z,101973.94
2019-03-28T09:30:09.667Z,101963.89
2019-03-28T09:31:44.905Z,101972.26
2019-03-28T09:33:20.130Z,101964.39
2019-03-28T09:34:55.806Z,101970.07
2019-03-28T09:36:30.942Z,101968.97
2019-03-28T09:38:06.115Z,101966.91
2019-03-28T09:39:41.398Z,101973.66
2019-03-28T09:41:16.570Z,101974.02
2019-03-28T09:42:51.880Z,101973.58
2019-03-28T09:44:26.787Z,101967.59
2019-03-28T09:46:02.105Z,101964.95
2019-03-28T09:47:37.262Z,101959.33
2019-03-28T09:49:12.229Z,101964.44
2019-03-28T09:50:47.146Z,101960.39
2019-03-28T09:52:22.080Z,101953.23
2019-03-28T09:53:57.262Z,101953.77
2019-03-28T09:55:32.162Z,101964.66
2019-03-28T09:57:07.329Z,101959.36
2019-03-28T09:58:42.571Z,101952.51
2019-03-28T10:00:18.446Z,101955.87
2019-03-28T10:01:53.652Z,101953.36
2019-03-28T10:03:29.090Z,101957.73
2019-03-28T10:05:04.097Z,101955.13
2019-03-28T10:06:39.298Z,101952.43
2019-03-28T10:08:14.303Z,101956.09
2019-03-28T10:09:50.132Z,101954.22
2019-03-28T10:11:25.762Z,101952.89
2019-03-28T10:13:00.713Z,101958.16
2019-03-28T10:14:35.641Z,101957.04
2019-03-28T10:16:10.563Z,101954.77
2019-03-28T10:17:45.781Z,101951.54
2019-03-28T10:19:20.879Z,101950.97
2019-03-28T10:20:55.831Z,101956.40
2019-03-28T10:22:30.779Z,101961.82
2019-03-28T10:24:05.754Z,101958.55
2019-03-28T10:25:41.115Z,101955.55
2019-03-28T10:27:19.062Z,101956.52
2019-03-28T10:28:52.740Z,101960.38
2019-03-28T10:30:38.820Z,101956.64
2019-03-28T10:32:13.727Z,101959.70
2019-03-28T10:33:49.111Z,101966.19
2019-03-28T10:35:28.689Z,101965.09
2019-03-28T10:37:03.945Z,101964.97
2019-03-28T10:38:38.890Z,101963.14
2019-03-28T10:40:14.398Z,101968.05
2019-03-28T10:41:49.491Z,101972.10
2019-03-28T10:43:24.495Z,101973.84
2019-03-28T10:44:59.785Z,101974.56
2019-03-28T10:46:34.862Z,101969.71
2019-03-28T10:48:09.975Z,101967.78
2019-03-28T10:49:45.304Z,101963.39
2019-03-28T10:51:20.571Z,101967.41
2019-03-28T10:52:55.644Z,101968.36
2019-03-28T10:54:30.874Z,101970.20
2019-03-28T10:56:05.844Z,101967.50
2019-03-28T10:57:40.864Z,101968.40
2019-03-28T10:59:23.161Z,101969.78
2019-03-28T11:00:54.771Z,101970.22
2019-03-28T11:02:29.506Z,101965.53
2019-03-28T11:04:04.543Z,101973.75
2019-03-28T11:05:40.549Z,101978.60
2019-03-28T11:07:15.621Z,101976.63
2019-03-28T11:08:50.529Z,101978.70
2019-03-28T11:10:26.605Z,101977.34
2019-03-28T11:12:03.007Z,101975.56
2019-03-28T11:13:38.102Z,101977.53
2019-03-28T11:15:13.236Z,101978.05
2019-03-28T11:16:48.504Z,101972.59
2019-03-28T11:18:23.615Z,101979.95
2019-03-28T11:19:58.613Z,101973.45
2019-03-28T11:21:34.402Z,101978.30
2019-03-28T11:23:09.827Z,101967.59
2019-03-28T11:24:46.510Z,101974.89
2019-03-28T11:26:21.607Z,101979.35
2019-03-28T11:27:56.527Z,101982.88
2019-03-28T11:29:31.755Z,101987.17
2019-03-28T11:31:06.709Z,101981.94
2019-03-28T11:32:41.862Z,101984.45
2019-03-28T11:34:16.798Z,101988.07
2019-03-28T11:35:51.978Z,101987.69
2019-03-28T11:37:28.246Z,101988.50
2019-03-28T11:39:04.777Z,101989.34
2019-03-28T11:40:42.799Z,101993.84
2019-03-28T11:42:16.804Z,101996.61
2019-03-28T11:43:52.088Z,101996.17
2019-03-28T11:45:27.538Z,101997.38
2019-03-28T11:47:02.551Z,101991.58
2019-03-28T11:48:37.455Z,101991.56
2019-03-28T11:50:13.044Z,101996.42
2019-03-28T11:51:48.707Z,101997.89
2019-03-28T11:53:23.610Z,102000.08
2019-03-28T11:54:58.936Z,101995.19
2019-03-28T11:56:34.114Z,101997.96
2019-03-28T11:58:09.154Z,101994.80
2019-03-28T11:59:44.287Z,101999.37
2019-03-28T12:01:19.452Z,101997.53
2019-03-28T12:02:54.739Z,101997.95
2019-03-28T12:04:29.749Z,102000.48
2019-03-28T12:06:05.150Z,101994.11
2019-03-28T12:07:40.110Z,101996.47
2019-03-28T12:09:15.158Z,101992.70
2019-03-28T12:10:50.166Z,101989.87
2019-03-28T12:12:25.563Z,101985.33
2019-03-28T12:14:00.628Z,101987.73
2019-03-28T12:15:36.099Z,101986.16
2019-03-28T12:17:11.477Z,101988.86
2019-03-28T12:18:46.383Z,101987.26
2019-03-28T12:20:21.735Z,101985.66
2019-03-28T12:21:56.744Z,101991.86
2019-03-28T12:23:31.760Z,101986.59
2019-03-28T12:25:07.936Z,101985.55
2019-03-28T12:26:42.945Z,101986.70
2019-03-28T12:28:18.618Z,101981.84
2019-03-28T12:29:53.750Z,101981.20
2019-03-28T12:31:29.015Z,101981.02
2019-03-28T12:33:03.980Z,101982.46
2019-03-28T12:34:39.382Z,101990.86
2019-03-28T12:36:14.794Z,101989.09
2019-03-28T12:37:49.860Z,101983.02
2019-03-28T12:39:25.460Z,101980.05
2019-03-28T12:41:00.788Z,101982.08
2019-03-28T12:42:35.695Z,101986.03
2019-03-28T12:44:10.765Z,101978.73
2019-03-28T12:45:45.701Z,101977.48
2019-03-28T12:47:21.388Z,101977.08
2019-03-28T12:48:56.334Z,101980.72
2019-03-28T12:50:31.404Z,101974.61
2019-03-28T12:52:07.065Z,101984.98
2019-03-28T12:53:42.990Z,101978.92
2019-03-28T12:55:18.590Z,101981.47
2019-03-28T12:56:54.205Z,101970.41
2019-03-28T12:58:29.386Z,101978.71
2019-03-28T13:00:06.060Z,101978.50
2019-03-28T13:01:41.624Z,101975.54
2019-03-28T13:03:16.844Z,101971.49
2019-03-28T13:04:51.746Z,101975.91
2019-03-28T13:06:26.947Z,101969.76
2019-03-28T13:08:01.854Z,101972.22
2019-03-28T13:09:37.089Z,101974.25
2019-03-28T13:11:12.004Z,101980.52
2019-03-28T13:12:46.949Z,101983.15
2019-03-28T13:14:22.134Z,101982.05
2019-03-28T13:15:57.166Z,101980.28
2019-03-28T13:17:32.086Z,101981.22
2019-03-28T13:19:07.039Z,101988.75
2019-03-28T13:20:42.046Z,101979.66
2019-03-28T13:22:17.069Z,101995.48
2019-03-28T13:23:52.202Z,101997.51
2019-03-28T13:25:27.433Z,102000.50
2019-03-28T13:27:02.599Z,102002.75
2019-03-28T13:28:38.639Z,102006.61
2019-03-28T13:30:17.539Z,102007.01
2019-03-28T13:31:53.546Z,102006.34
2019-03-28T13:33:29.232Z,102004.70
2019-03-28T13:35:05.758Z,102004.83
2019-03-28T13:36:41.359Z,102001.80
2019-03-28T13:38:17.302Z,101997.45
2019-03-28T13:39:53.220Z,102000.86
2019-03-28T13:41:29.114Z,101999.23
2019-03-28T13:43:05.012Z,101993.17
2019-03-28T13:44:40.696Z,101993.48
2019-03-28T13:46:16.856Z,101991.07
2019-03-28T13:47:54.405Z,101990.02
2019-03-28T13:49:30.203Z,101990.54
2019-03-28T13:51:06.002Z,101988.28
2019-03-28T13:52:41.979Z,101991.80
2019-03-28T13:54:17.619Z,101995.50
2019-03-28T13:55:53.224Z,101993.28
2019-03-28T13:57:28.839Z,101995.52
2019-03-28T13:59:05.705Z,102001.79
2019-03-28T14:00:41.522Z,101997.62
2019-03-28T14:02:17.440Z,101999.51
2019-03-28T14:03:53.095Z,101990.92
2019-03-28T14:05:29.018Z,101999.58
2019-03-28T14:07:04.661Z,101999.28
2019-03-28T14:08:40.558Z,101996.41
2019-03-28T14:10:16.535Z,101996.02
2019-03-28T14:11:52.443Z,101994.07
2019-03-28T14:13:28.363Z,102002.97
2019-03-28T14:15:05.495Z,101997.61
2019-03-28T14:16:41.126Z,101991.01
2019-03-28T14:18:17.130Z,101997.47
2019-03-28T14:19:53.099Z,101995.91
2019-03-28T14:21:28.718Z,101997.98
2019-03-28T14:23:04.346Z,102000.52
2019-03-28T14:24:40.308Z,102000.69
2019-03-28T14:26:15.947Z,102004.64
2019-03-28T14:27:51.578Z,101996.11
2019-03-28T14:29:29.718Z,101998.45
2019-03-28T14:31:05.416Z,101992.98
2019-03-28T14:32:52.679Z,101999.11
2019-03-28T14:34:18.412Z,101996.53
2019-03-28T14:35:54.265Z,101991.92
2019-03-28T14:37:30.160Z,102000.86
2019-03-28T14:39:08.468Z,102002.23
2019-03-28T14:40:44.313Z,101997.56
2019-03-28T14:42:20.288Z,101999.23
2019-03-28T14:43:55.920Z,102000.63
2019-03-28T14:45:31.531Z,102005.25
2019-03-28T14:47:07.140Z,102001.17
2019-03-28T14:48:43.031Z,102000.50
2019-03-28T14:50:40.079Z,101997.69
2019-03-28T14:52:15.799Z,101995.49
2019-03-28T14:53:51.723Z,102000.41
2019-03-28T14:55:27.421Z,101998.17
2019-03-28T14:57:03.994Z,101999.38
2019-03-28T14:58:42.268Z,102003.73
2019-03-28T15:00:42.241Z,102007.69
2019-03-28T15:02:17.956Z,101999.36
2019-03-28T15:03:53.667Z,102005.88
2019-03-28T15:05:29.301Z,102005.48
2019-03-28T15:07:07.373Z,101999.28
2019-03-28T15:08:43.495Z,102001.55
2019-03-28T15:10:19.808Z,101998.33
2019-03-28T15:11:55.429Z,102002.05
2019-03-28T15:13:31.356Z,101996.35
2019-03-28T15:15:07.305Z,101997.23
2019-03-28T15:16:43.786Z,101993.11
2019-03-28T15:18:20.158Z,101996.13
2019-03-28T15:19:56.076Z,101996.27
2019-03-28T15:21:31.718Z,101990.90
2019-03-28T15:23:07.356Z,101996.69
2019-03-28T15:24:43.010Z,101998.11
2019-03-28T15:26:18.730Z,101998.05
2019-03-28T15:27:54.629Z,101997.34
2019-03-28T15:29:30.507Z,101997.20
2019-03-28T15:31:06.618Z,102004.38
2019-03-28T15:32:42.341Z,102000.31
2019-03-28T15:34:17.967Z,102002.16
2019-03-28T15:35:53.598Z,102002.73
2019-03-28T15:37:29.590Z,102001.16
2019-03-28T15:39:07.691Z,101999.70
2019-03-28T15:40:43.313Z,101993.66
2019-03-28T15:42:19.284Z,101996.88
2019-03-28T15:43:55.231Z,101990.92
2019-03-28T15:45:30.896Z,101989.44
2019-03-28T15:47:06.522Z,101994.57
2019-03-28T15:48:42.179Z,101993.97
2019-03-28T15:50:17.973Z,101995.23
2019-03-28T15:51:53.608Z,102000.44
2019-03-28T15:53:29.227Z,101998.48
2019-03-28T15:55:05.271Z,101998.38
2019-03-28T15:56:41.265Z,101996.64
2019-03-28T15:58:23.157Z,101997.79
2019-03-28T15:59:54.830Z,102000.18
2019-03-28T16:01:30.477Z,102006.81
2019-03-28T16:03:06.169Z,102010.25
2019-03-28T16:04:41.795Z,102010.60
2019-03-28T16:06:17.434Z,102011.53
2019-03-28T16:07:53.361Z,102016.91
2019-03-28T16:09:28.983Z,102018.00
2019-03-28T16:11:04.767Z,102011.20
2019-03-28T16:12:40.125Z,102015.45
2019-03-28T16:14:15.112Z,102013.09
2019-03-28T16:15:50.496Z,102017.42
2019-03-28T16:17:25.718Z,102015.19
2019-03-28T16:19:01.759Z,102017.30
2019-03-28T16:20:37.238Z,102020.52
2019-03-28T16:22:12.162Z,102020.89
2019-03-28T16:23:47.078Z,102019.22
2019-03-28T16:25:22.049Z,102018.30
2019-03-28T16:26:56.967Z,102024.00
2019-03-28T16:28:31.938Z,102027.00
2019-03-28T16:30:09.673Z,102019.48
2019-03-28T16:31:44.613Z,102027.03
2019-03-28T16:33:19.795Z,102024.60
2019-03-28T16:34:55.338Z,102026.08
2019-03-28T16:36:30.275Z,102028.88
2019-03-28T16:38:06.008Z,102027.66
2019-03-28T16:39:41.012Z,102031.13
2019-03-28T16:41:16.209Z,102035.77
2019-03-28T16:42:51.163Z,102030.17
2019-03-28T16:44:26.109Z,102025.17
2019-03-28T16:46:01.108Z,102030.58
2019-03-28T16:47:36.125Z,102030.83
2019-03-28T16:49:11.306Z,102033.36
2019-03-28T16:50:46.242Z,102034.94
2019-03-28T16:52:21.165Z,102033.08
2019-03-28T16:53:56.423Z,102036.77
2019-03-28T16:55:31.449Z,102030.95
2019-03-28T16:57:07.053Z,102026.93
2019-03-28T16:58:41.982Z,102028.48
2019-03-28T17:00:18.508Z,102033.65
2019-03-28T17:01:53.809Z,102023.03
2019-03-28T17:03:28.819Z,102023.86
2019-03-28T17:05:04.673Z,102028.23
2019-03-28T17:06:39.787Z,102029.31
2019-03-28T17:08:15.902Z,102037.51
2019-03-28T17:09:50.904Z,102030.81
2019-03-28T17:11:25.834Z,102036.54
2019-03-28T17:13:00.766Z,102031.11
2019-03-28T17:14:35.902Z,102032.62
2019-03-28T17:16:10.891Z,102031.68
2019-03-28T17:17:46.149Z,102028.66
2019-03-28T17:19:21.437Z,102030.61
2019-03-28T17:20:56.460Z,102036.42
2019-03-28T17:22:31.804Z,102030.34
2019-03-28T17:24:06.738Z,102038.80
2019-03-28T17:25:41.757Z,102039.73
2019-03-28T17:27:17.094Z,102049.20
2019-03-28T17:28:52.029Z,102045.30
2019-03-28T17:30:27.283Z,102039.95
2019-03-28T17:32:02.261Z,102054.59
2019-03-28T17:33:37.315Z,102047.58
2019-03-28T17:35:13.033Z,102049.48
2019-03-28T17:36:48.192Z,102050.44
2019-03-28T17:38:23.273Z,102045.19
2019-03-28T17:39:58.653Z,102050.57
2019-03-28T17:41:33.883Z,102052.64
2019-03-28T17:43:08.804Z,102047.33
2019-03-28T17:44:44.038Z,102053.65
2019-03-28T17:46:19.045Z,102047.44
2019-03-28T17:47:54.007Z,102057.19
2019-03-28T17:49:29.002Z,102056.36
2019-03-28T17:51:04.181Z,102053.28
2019-03-28T17:52:39.422Z,102058.72
2019-03-28T17:54:14.701Z,102060.56
2019-03-28T17:55:49.787Z,102066.02
2019-03-28T17:57:24.791Z,102074.41
2019-03-28T17:58:59.852Z,102068.03
2019-03-28T18:00:34.877Z,102070.23
2019-03-28T18:02:10.017Z,102071.27
2019-03-28T18:03:45.295Z,102068.28
2019-03-28T18:05:20.627Z,102073.25
2019-03-28T18:06:55.719Z,102080.96
2019-03-28T18:08:30.911Z,102079.66
2019-03-28T18:10:06.654Z,102083.41
2019-03-28T18:11:41.921Z,102087.23